Time;durP1;ratioP1;P1;durP2;ratioP2;P2;SDS_P1;SDS_P2;PMS_P1;PMS_P2;Temp;Humidity;BMP_temperature;BMP_pressure;BME280_temperature;BME280_humidity;BME280_pressure;Samples;Min_cycle;Max_cycle;Signal;HPM_P1;HPM_P2
2022/04/03 03:00:26;;;;;;;0.95;0.80;;;15.40;47.10;;;;;;5867425;23;47530;-57
2022/04/03 03:02:52;;;;;;;1.15;0.88;;;15.40;47.10;;;;;;4856972;28;47439;-57
2022/04/03 03:05:18;;;;;;;1.90;1.10;;;15.40;47.10;;;;;;4883865;28;45622;-55
2022/04/03 03:07:47;;;;;;;1.45;1.00;;;15.30;47.00;;;;;;4935642;28;45489;-56
2022/04/03 03:10:16;;;;;;;1.00;0.85;;;15.30;47.10;;;;;;4938569;28;45189;-57
2022/04/03 03:12:41;;;;;;;1.42;1.17;;;15.30;47.20;;;;;;4952894;28;45606;-55
2022/04/03 03:15:07;;;;;;;1.00;0.90;;;15.30;47.10;;;;;;4952580;28;44931;-59
2022/04/03 03:17:33;;;;;;;1.33;0.80;;;15.30;47.20;;;;;;4951385;28;44926;-58
2022/04/03 03:19:59;;;;;;;1.63;1.00;;;15.30;47.10;;;;;;4948797;28;45673;-53
2022/04/03 03:22:25;;;;;;;1.05;0.90;;;15.30;47.10;;;;;;4950416;28;45949;-56
2022/04/03 03:24:50;;;;;;;1.42;0.90;;;15.30;47.20;;;;;;4950638;28;45323;-58
2022/04/03 03:27:16;;;;;;;1.38;0.88;;;15.30;47.20;;;;;;4953114;28;45548;-57
2022/04/03 03:29:41;;;;;;;0.70;0.70;;;15.30;47.20;;;;;;4956702;28;45553;-58
2022/04/03 03:32:08;;;;;;;1.80;1.10;;;15.30;47.20;;;;;;4947635;28;46211;-56
2022/04/03 03:34:34;;;;;;;1.17;1.00;;;15.30;47.20;;;;;;4951986;28;45216;-58
2022/04/03 03:37:01;;;;;;;0.77;0.77;;;15.30;47.20;;;;;;4950181;28;45252;-55
2022/04/03 03:39:27;;;;;;;1.33;0.90;;;15.20;47.10;;;;;;4947120;28;45577;-56
2022/04/03 03:41:55;;;;;;;1.13;0.80;;;15.20;47.20;;;;;;4946535;28;45995;-56
2022/04/03 03:44:24;;;;;;;0.80;0.80;;;15.20;47.20;;;;;;4946800;28;45333;-56
2022/04/03 03:46:49;;;;;;;1.23;0.82;;;15.20;47.10;;;;;;4951286;28;45203;-55
2022/04/03 03:49:15;;;;;;;1.20;0.90;;;15.20;47.20;;;;;;4956107;28;45293;-53
2022/04/03 03:51:40;;;;;;;0.80;0.80;;;15.20;47.20;;;;;;4946688;28;45573;-57
2022/04/03 03:54:06;;;;;;;1.08;0.80;;;15.20;47.20;;;;;;4951189;28;45480;-57
2022/04/03 03:56:32;;;;;;;1.00;0.90;;;15.20;47.20;;;;;;4953445;28;47815;-54
2022/04/03 03:58:58;;;;;;;1.83;1.10;;;15.20;47.20;;;;;;4935280;28;45584;-55
2022/04/03 04:01:23;;;;;;;1.25;0.80;;;15.20;47.30;;;;;;4948943;28;45920;-56
2022/04/03 04:03:49;;;;;;;1.38;0.82;;;15.10;47.30;;;;;;4949023;28;45121;-54
2022/04/03 04:06:14;;;;;;;1.45;0.60;;;15.10;47.30;;;;;;4945551;28;45247;-54
2022/04/03 04:08:41;;;;;;;1.23;0.80;;;15.10;47.30;;;;;;4943282;28;45300;-54
2022/04/03 04:11:07;;;;;;;1.38;0.95;;;15.10;47.30;;;;;;4945739;28;47163;-55
2022/04/03 04:13:32;;;;;;;1.00;0.77;;;15.10;47.30;;;;;;4949586;28;45098;-56
2022/04/03 04:15:58;;;;;;;1.35;1.05;;;15.10;47.20;;;;;;4953720;28;45370;-55
2022/04/03 04:18:24;;;;;;;1.10;1.00;;;15.10;47.20;;;;;;4947476;28;45219;-56
2022/04/03 04:20:52;;;;;;;1.30;1.00;;;15.10;47.20;;;;;;4946220;28;45197;-55
2022/04/03 04:23:19;;;;;;;1.45;1.00;;;15.10;47.20;;;;;;4950461;28;45232;-54
2022/04/03 04:25:45;;;;;;;1.38;0.85;;;15.10;47.30;;;;;;4947558;28;45307;-53
2022/04/03 04:28:11;;;;;;;0.70;0.68;;;15.10;47.30;;;;;;4922285;28;45272;-55
2022/04/03 04:30:37;;;;;;;0.75;0.75;;;15.10;47.30;;;;;;4948216;28;45239;-52
2022/04/03 04:33:03;;;;;;;1.20;0.85;;;15.10;47.30;;;;;;4944918;28;45217;-56
2022/04/03 04:35:29;;;;;;;1.90;1.20;;;15.10;47.20;;;;;;4946816;28;44837;-53
2022/04/03 04:37:54;;;;;;;1.27;1.08;;;15.00;47.20;;;;;;4946545;28;45251;-57
2022/04/03 04:40:20;;;;;;;1.77;1.00;;;15.00;47.20;;;;;;4948582;28;46299;-57
2022/04/03 04:42:47;;;;;;;0.80;0.80;;;15.00;47.20;;;;;;4930300;28;45266;-57
2022/04/03 04:45:14;;;;;;;1.00;0.90;;;15.00;47.30;;;;;;4943298;28;45564;-55
2022/04/03 04:47:40;;;;;;;1.00;0.85;;;15.00;47.30;;;;;;4947933;28;45724;-58
2022/04/03 04:50:10;;;;;;;0.90;0.80;;;15.00;47.30;;;;;;4946869;28;45789;-56
2022/04/03 04:52:36;;;;;;;1.20;0.93;;;15.00;47.30;;;;;;4945070;28;45283;-56
2022/04/03 04:55:05;;;;;;;0.80;0.70;;;15.00;47.30;;;;;;4932097;28;45314;-58
2022/04/03 04:57:34;;;;;;;1.33;0.93;;;15.00;47.30;;;;;;4946300;28;45290;-53
2022/04/03 05:00:00;;;;;;;1.02;0.85;;;15.00;47.30;;;;;;4946143;28;46949;-54
2022/04/03 05:02:25;;;;;;;2.78;1.08;;;14.90;47.40;;;;;;4931373;28;45359;-57
2022/04/03 05:04:51;;;;;;;1.50;0.93;;;14.90;47.50;;;;;;4932177;28;45399;-57
2022/04/03 05:07:17;;;;;;;1.35;0.80;;;14.90;47.40;;;;;;4933250;28;44814;-56
2022/04/03 05:09:43;;;;;;;1.10;1.00;;;14.90;47.40;;;;;;4931389;28;46155;-56
2022/04/03 05:12:10;;;;;;;1.45;0.80;;;14.90;47.40;;;;;;4913828;28;45535;-53
2022/04/03 05:14:37;;;;;;;0.77;0.68;;;14.90;47.40;;;;;;4933552;28;44931;-58
2022/04/03 05:17:03;;;;;;;1.70;0.80;;;14.90;47.40;;;;;;4932324;28;45338;-58
2022/04/03 05:19:29;;;;;;;3.58;1.17;;;14.90;47.40;;;;;;4930972;28;45922;-57
2022/04/03 05:21:54;;;;;;;1.60;0.95;;;14.90;47.40;;;;;;4932256;28;45319;-54
2022/04/03 05:24:20;;;;;;;1.05;0.82;;;14.90;47.40;;;;;;4931488;28;45215;-56
2022/04/03 05:26:46;;;;;;;0.88;0.75;;;14.90;47.30;;;;;;4930873;28;44763;-58
2022/04/03 05:29:11;;;;;;;2.67;0.80;;;14.80;47.30;;;;;;4927952;28;47049;-56
2022/04/03 05:31:37;;;;;;;0.98;0.77;;;14.90;47.40;;;;;;4927965;28;46165;-56
2022/04/03 05:34:02;;;;;;;1.10;0.80;;;14.80;47.40;;;;;;4929418;28;44814;-57
2022/04/03 05:36:28;;;;;;;1.13;1.00;;;14.80;47.40;;;;;;4928558;28;45650;-56
2022/04/03 05:38:54;;;;;;;0.98;0.85;;;14.80;47.40;;;;;;4915188;28;45995;-55
2022/04/03 05:41:19;;;;;;;0.98;0.80;;;14.80;47.30;;;;;;4913917;28;45374;-58
2022/04/03 05:43:45;;;;;;;2.08;0.93;;;14.80;47.30;;;;;;4929995;28;45322;-56
2022/04/03 05:46:10;;;;;;;1.13;0.98;;;14.80;47.30;;;;;;4931067;28;45603;-58
2022/04/03 05:48:36;;;;;;;1.17;0.90;;;14.80;47.30;;;;;;4932067;28;46350;-56
2022/04/03 05:51:02;;;;;;;1.00;0.80;;;14.80;47.20;;;;;;4929510;28;46823;-56
2022/04/03 05:53:28;;;;;;;0.75;0.70;;;15.00;47.00;;;;;;4931145;28;44712;-53
2022/04/03 05:55:54;;;;;;;1.13;1.00;;;15.10;46.80;;;;;;4929491;28;45215;-56
2022/04/03 05:58:20;;;;;;;1.05;0.90;;;15.10;46.60;;;;;;4930562;28;45937;-56
2022/04/03 06:00:45;;;;;;;1.15;0.90;;;15.20;46.50;;;;;;4924152;28;45170;-53
2022/04/03 06:03:11;;;;;;;1.05;0.95;;;15.30;46.40;;;;;;4930001;28;45566;-58
2022/04/03 06:05:38;;;;;;;0.93;0.82;;;15.30;46.20;;;;;;4930799;28;45662;-57
2022/04/03 06:08:04;;;;;;;3.05;0.90;;;15.40;46.10;;;;;;4930420;28;46059;-57
2022/04/03 06:10:30;;;;;;;1.50;1.00;;;15.50;45.90;;;;;;4927349;28;45135;-58
2022/04/03 06:13:04;;;;;;;1.17;0.90;;;15.60;45.70;;;;;;4929867;28;45025;-56
2022/04/03 06:15:38;;;;;;;0.80;0.70;;;15.60;45.70;;;;;;4931317;28;44856;-58
2022/04/03 06:18:13;;;;;;;1.08;0.70;;;15.60;45.60;;;;;;4931805;28;46053;-54
2022/04/03 06:20:39;;;;;;;0.60;0.60;;;15.60;45.60;;;;;;4932808;28;45325;-54
2022/04/03 06:23:25;;;;;;;1.13;0.85;;;15.60;45.70;;;;;;4931407;28;45613;-58
2022/04/03 06:25:55;;;;;;;1.15;0.80;;;15.40;45.80;;;;;;4931146;28;45421;-58
2022/04/03 06:28:20;;;;;;;0.90;0.80;;;15.30;46.00;;;;;;4927288;28;46184;-55
2022/04/03 06:30:49;;;;;;;1.08;0.93;;;15.20;46.20;;;;;;4930452;28;45083;-55
2022/04/03 06:33:14;;;;;;;1.13;0.65;;;15.20;46.40;;;;;;4930328;28;45735;-57
2022/04/03 06:35:40;;;;;;;1.10;0.98;;;15.10;46.50;;;;;;4930933;28;45087;-55
2022/04/03 06:38:06;;;;;;;1.08;0.93;;;15.10;46.50;;;;;;4931952;28;45598;-58
2022/04/03 06:40:32;;;;;;;0.85;0.82;;;15.10;46.50;;;;;;4931312;28;45283;-58
2022/04/03 06:42:58;;;;;;;1.25;0.90;;;15.10;46.60;;;;;;4928790;28;45037;-57
2022/04/03 06:45:24;;;;;;;0.95;0.82;;;15.10;46.60;;;;;;4931389;28;45600;-53
2022/04/03 06:47:49;;;;;;;0.70;0.70;;;15.10;46.70;;;;;;4916928;28;46223;-56
2022/04/03 06:50:15;;;;;;;0.93;0.73;;;15.00;46.60;;;;;;4899916;28;45503;-56
2022/04/03 06:52:40;;;;;;;0.60;0.60;;;15.00;46.70;;;;;;4933057;28;45546;-56
2022/04/03 06:55:06;;;;;;;1.40;0.90;;;15.00;46.80;;;;;;4931868;28;45517;-58
2022/04/03 06:57:32;;;;;;;1.35;0.80;;;15.00;46.80;;;;;;4932231;28;47055;-55
2022/04/03 06:59:58;;;;;;;1.10;0.77;;;15.00;46.80;;;;;;4912189;28;46246;-56
2022/04/03 07:02:24;;;;;;;0.80;0.73;;;15.00;46.80;;;;;;4930420;28;45473;-57
2022/04/03 07:04:50;;;;;;;1.17;1.08;;;15.00;46.80;;;;;;4932660;28;45496;-57
2022/04/03 07:07:22;;;;;;;1.00;0.77;;;15.00;46.80;;;;;;4933008;28;46109;-56
2022/04/03 07:09:48;;;;;;;1.00;0.73;;;15.00;46.80;;;;;;4927572;28;48392;-57
2022/04/03 07:12:14;;;;;;;1.17;0.90;;;15.00;46.80;;;;;;4930416;28;45305;-58
2022/04/03 07:14:40;;;;;;;0.98;0.80;;;15.00;46.80;;;;;;4912615;28;46223;-55
2022/04/03 07:17:06;;;;;;;0.88;0.80;;;15.00;46.80;;;;;;4928700;28;45213;-55
2022/04/03 07:19:31;;;;;;;1.42;0.88;;;15.00;46.80;;;;;;4927148;28;45338;-57
2022/04/03 07:21:57;;;;;;;0.70;0.70;;;15.00;46.80;;;;;;4932339;28;45479;-54
2022/04/03 07:24:24;;;;;;;0.70;0.60;;;15.00;46.30;;;;;;4931809;28;44988;-59
2022/04/03 07:26:49;;;;;;;1.52;0.90;;;15.00;46.80;;;;;;4927909;28;46688;-58
2022/04/03 07:29:15;;;;;;;0.70;0.70;;;15.00;46.80;;;;;;4931933;28;45622;-57
2022/04/03 07:31:41;;;;;;;1.17;0.95;;;15.00;46.80;;;;;;4914284;28;46425;-61
2022/04/03 07:34:06;;;;;;;1.17;0.70;;;15.00;46.80;;;;;;4931823;28;45367;-59
2022/04/03 07:36:32;;;;;;;1.15;0.90;;;15.00;46.80;;;;;;4929521;28;46100;-58
2022/04/03 07:38:58;;;;;;;0.60;0.60;;;15.00;46.80;;;;;;4933445;28;46110;-58
2022/04/03 07:41:23;;;;;;;0.60;0.60;;;15.10;46.90;;;;;;4932093;28;45336;-56
2022/04/03 07:43:49;;;;;;;0.98;0.77;;;15.00;46.80;;;;;;4928830;28;45517;-59
2022/04/03 07:46:16;;;;;;;2.15;0.60;;;15.00;46.80;;;;;;4915851;28;45954;-58
2022/04/03 07:48:42;;;;;;;0.70;0.70;;;15.00;46.80;;;;;;4920550;28;45300;-54
2022/04/03 07:51:08;;;;;;;0.85;0.82;;;15.00;46.80;;;;;;4928649;28;45025;-57
2022/04/03 07:53:34;;;;;;;2.83;1.08;;;15.00;46.80;;;;;;4930559;28;45719;-58
2022/04/03 07:55:59;;;;;;;1.08;0.88;;;15.10;46.80;;;;;;4930492;28;46078;-58
2022/04/03 07:58:25;;;;;;;1.75;1.00;;;15.10;46.80;;;;;;4914279;28;45292;-58
2022/04/03 08:00:51;;;;;;;0.80;0.80;;;15.10;46.80;;;;;;4924311;28;45908;-56
2022/04/03 08:03:16;;;;;;;0.88;0.80;;;15.10;46.80;;;;;;4940440;28;45928;-58
2022/04/03 08:05:42;;;;;;;0.95;0.80;;;15.10;46.80;;;;;;4935299;28;46135;-54
2022/04/03 08:08:07;;;;;;;1.60;0.82;;;15.10;46.80;;;;;;4945899;28;44768;-57
2022/04/03 08:10:34;;;;;;;1.60;0.85;;;15.10;46.80;;;;;;4948626;28;45439;-59
2022/04/03 08:13:00;;;;;;;0.70;0.70;;;15.10;46.70;;;;;;4945697;28;45520;-56
2022/04/03 08:15:25;;;;;;;1.00;0.73;;;15.10;46.70;;;;;;4929469;28;47558;-58
2022/04/03 08:17:51;;;;;;;1.63;0.73;;;15.10;46.60;;;;;;4946400;28;45318;-59
2022/04/03 08:20:17;;;;;;;0.60;0.60;;;15.20;46.60;;;;;;4950593;28;45276;-59
2022/04/03 08:22:43;;;;;;;0.70;0.70;;;15.20;46.50;;;;;;4947423;28;45486;-56
2022/04/03 08:25:09;;;;;;;0.95;0.70;;;15.20;46.50;;;;;;4939644;28;46354;-53
2022/04/03 08:27:48;;;;;;;0.57;0.57;;;15.20;46.50;;;;;;4945884;28;44764;-55
2022/04/03 08:30:30;;;;;;;0.70;0.60;;;15.20;46.50;;;;;;4948285;28;44836;-56
2022/04/03 08:32:56;;;;;;;1.43;1.00;;;15.20;46.50;;;;;;4950727;28;45385;-57
2022/04/03 08:35:23;;;;;;;1.65;0.68;;;15.20;46.50;;;;;;4939035;28;46061;-58
2022/04/03 08:37:50;;;;;;;0.80;0.70;;;15.20;46.50;;;;;;4950449;28;45595;-59
2022/04/03 08:40:15;;;;;;;1.00;0.57;;;15.20;46.60;;;;;;4935554;28;45293;-56
2022/04/03 08:42:41;;;;;;;0.75;0.70;;;15.20;46.50;;;;;;4947793;28;44796;-57
2022/04/03 08:45:11;;;;;;;0.85;0.80;;;15.20;46.50;;;;;;4941315;28;46080;-57
2022/04/03 08:47:47;;;;;;;0.70;0.70;;;15.30;46.60;;;;;;4948854;28;45380;-59
2022/04/03 08:50:16;;;;;;;1.30;0.80;;;15.30;46.60;;;;;;4935958;28;45670;-57
2022/04/03 08:52:44;;;;;;;0.95;0.70;;;15.30;46.60;;;;;;4944412;28;45597;-59
2022/04/03 08:55:10;;;;;;;0.80;0.68;;;15.30;46.60;;;;;;4944147;28;47209;-59
2022/04/03 08:57:36;;;;;;;1.05;0.75;;;15.30;46.60;;;;;;4948222;28;45295;-56
2022/04/03 09:00:01;;;;;;;0.90;0.60;;;15.30;46.60;;;;;;4953835;28;45367;-58
2022/04/03 09:02:27;;;;;;;0.43;0.43;;;15.30;46.60;;;;;;4935216;28;45765;-57
2022/04/03 09:04:53;;;;;;;0.93;0.77;;;15.30;46.60;;;;;;4931799;28;47205;-56
2022/04/03 09:07:19;;;;;;;0.57;0.57;;;15.30;46.60;;;;;;4942090;28;45318;-57
2022/04/03 09:09:45;;;;;;;0.60;0.60;;;15.30;46.60;;;;;;4942711;28;45568;-58
2022/04/03 09:12:18;;;;;;;0.50;0.50;;;15.30;46.60;;;;;;4946612;28;45800;-58
2022/04/03 09:14:48;;;;;;;0.70;0.57;;;15.30;46.60;;;;;;4946831;28;46269;-56
2022/04/03 09:17:36;;;;;;;0.95;0.60;;;15.30;46.60;;;;;;4943921;28;45555;-59
2022/04/03 09:20:05;;;;;;;0.80;0.73;;;15.30;46.50;;;;;;4946161;28;45973;-59
2022/04/03 09:22:33;;;;;;;0.77;0.70;;;15.30;46.50;;;;;;4944917;28;45333;-59
2022/04/03 09:25:04;;;;;;;0.70;0.60;;;15.40;46.50;;;;;;4946051;28;45424;-60
2022/04/03 09:27:34;;;;;;;0.60;0.60;;;15.40;46.50;;;;;;4940636;28;45535;-58
2022/04/03 09:30:10;;;;;;;1.13;1.00;;;15.40;46.50;;;;;;4944715;28;45599;-59
2022/04/03 09:32:49;;;;;;;1.27;0.90;;;15.30;46.50;;;;;;4944355;28;45398;-58
2022/04/03 09:35:19;;;;;;;0.50;0.50;;;15.40;46.50;;;;;;4944893;28;45247;-58
2022/04/03 09:38:13;;;;;;;1.40;0.60;;;15.40;46.50;;;;;;4930323;28;45695;-59
2022/04/03 09:40:43;;;;;;;1.52;0.60;;;15.40;46.50;;;;;;4938101;28;45415;-58
2022/04/03 09:43:29;;;;;;;0.75;0.65;;;15.30;46.50;;;;;;4939744;28;45719;-58
2022/04/03 09:45:56;;;;;;;1.25;0.68;;;15.40;46.50;;;;;;4924097;28;47089;-57
2022/04/03 09:48:43;;;;;;;0.95;0.70;;;15.40;46.50;;;;;;4942241;28;45537;-56
2022/04/03 09:51:14;;;;;;;0.70;0.70;;;15.40;46.50;;;;;;4942171;28;45450;-56
2022/04/03 09:53:58;;;;;;;1.17;0.60;;;15.30;46.40;;;;;;4943079;28;45292;-59
2022/04/03 09:56:37;;;;;;;0.60;0.60;;;15.30;46.50;;;;;;4944410;28;45995;-58
2022/04/03 09:59:07;;;;;;;0.85;0.60;;;15.30;46.60;;;;;;4946446;28;44913;-58
2022/04/03 10:01:46;;;;;;;0.85;0.70;;;15.30;46.60;;;;;;4926255;28;45536;-57
2022/04/03 10:04:15;;;;;;;1.00;0.70;;;15.30;46.60;;;;;;4929237;28;45466;-59
2022/04/03 10:06:44;;;;;;;0.70;0.70;;;15.30;46.60;;;;;;4944564;28;46960;-59
2022/04/03 10:09:14;;;;;;;0.70;0.57;;;15.40;46.60;;;;;;4926912;28;45292;-56
2022/04/03 10:11:46;;;;;;;1.58;0.73;;;15.40;46.50;;;;;;4948243;28;45611;-60
2022/04/03 10:14:14;;;;;;;0.70;0.60;;;15.40;46.50;;;;;;4947475;28;45596;-56
2022/04/03 10:16:40;;;;;;;0.70;0.70;;;15.40;46.50;;;;;;4919536;28;45878;-58
2022/04/03 10:19:06;;;;;;;1.02;0.70;;;15.40;46.50;;;;;;4950637;28;45206;-59
2022/04/03 10:21:37;;;;;;;0.40;0.40;;;15.40;46.70;;;;;;4918003;28;45311;-59
2022/04/03 10:24:23;;;;;;;0.98;0.70;;;15.40;46.60;;;;;;4947658;28;45258;-59
2022/04/03 10:26:58;;;;;;;0.55;0.55;;;15.40;46.60;;;;;;4950486;28;46240;-58
2022/04/03 10:29:32;;;;;;;2.13;0.77;;;15.30;46.50;;;;;;4949238;28;45596;-55
2022/04/03 10:31:59;;;;;;;0.80;0.45;;;15.40;46.60;;;;;;4929143;28;45864;-56
2022/04/03 10:34:32;;;;;;;0.50;0.50;;;15.40;46.60;;;;;;4946442;28;46380;-57
2022/04/03 10:37:00;;;;;;;0.50;0.50;;;15.40;46.60;;;;;;4950306;28;45414;-60
2022/04/03 10:39:34;;;;;;;0.70;0.60;;;15.30;46.60;;;;;;4950853;28;45009;-57
2022/04/03 10:42:16;;;;;;;0.75;0.50;;;15.30;46.60;;;;;;4936897;28;45406;-58
2022/04/03 10:44:42;;;;;;;0.98;0.55;;;15.30;46.60;;;;;;4936582;28;46434;-58
2022/04/03 10:47:10;;;;;;;0.73;0.60;;;15.30;46.60;;;;;;4943808;28;46138;-57
2022/04/03 10:49:40;;;;;;;0.70;0.70;;;15.30;46.60;;;;;;4938746;28;46357;-59
2022/04/03 10:52:22;;;;;;;0.60;0.50;;;15.30;46.60;;;;;;4948364;28;44837;-56
2022/04/03 10:54:57;;;;;;;0.70;0.60;;;15.40;46.60;;;;;;4947867;28;45267;-57
2022/04/03 10:57:44;;;;;;;0.50;0.50;;;15.40;46.60;;;;;;4944124;28;45920;-56
2022/04/03 11:00:13;;;;;;;1.27;0.57;;;15.40;46.40;;;;;;4928381;28;45664;-57
2022/04/03 11:02:45;;;;;;;0.70;0.70;;;15.40;46.50;;;;;;4928132;28;45689;-57
2022/04/03 11:05:34;;;;;;;0.40;0.40;;;15.40;46.50;;;;;;4945671;28;45354;-59
2022/04/03 11:07:59;;;;;;;0.88;0.70;;;15.40;46.50;;;;;;4935896;28;46068;-59
2022/04/03 11:10:56;;;;;;;0.52;0.52;;;15.40;46.50;;;;;;4944302;28;45411;-59
2022/04/03 11:13:32;;;;;;;1.40;0.63;;;15.40;46.50;;;;;;4940913;28;45225;-58
2022/04/03 11:16:02;;;;;;;0.70;0.70;;;15.40;46.50;;;;;;4944629;28;45511;-58
2022/04/03 11:18:52;;;;;;;0.63;0.55;;;15.40;46.40;;;;;;4943974;28;46376;-59
2022/04/03 11:21:23;;;;;;;0.88;0.70;;;15.40;46.40;;;;;;4945063;28;45294;-56
2022/04/03 11:23:52;;;;;;;0.93;0.63;;;15.40;46.40;;;;;;4943583;28;45618;-59
2022/04/03 11:26:21;;;;;;;0.60;0.45;;;15.40;46.50;;;;;;4943023;28;45627;-58
2022/04/03 11:28:52;;;;;;;0.88;0.52;;;15.40;46.40;;;;;;4946324;28;46058;-58
2022/04/03 11:31:18;;;;;;;0.55;0.55;;;15.40;46.40;;;;;;4945611;28;46282;-59
2022/04/03 11:33:47;;;;;;;0.70;0.70;;;15.40;46.40;;;;;;4946899;28;45807;-56
2022/04/03 11:36:23;;;;;;;0.55;0.50;;;15.40;46.40;;;;;;4931323;28;45464;-59
2022/04/03 11:38:52;;;;;;;0.80;0.57;;;15.40;46.50;;;;;;4927106;28;45134;-58
2022/04/03 11:41:25;;;;;;;0.40;0.40;;;15.40;46.50;;;;;;4930048;28;45776;-57
2022/04/03 11:44:09;;;;;;;0.50;0.50;;;15.40;46.30;;;;;;4928809;28;45543;-59
2022/04/03 11:46:45;;;;;;;1.15;0.52;;;15.40;46.30;;;;;;4928435;28;45517;-57
2022/04/03 11:49:18;;;;;;;0.98;0.68;;;15.40;46.40;;;;;;4945065;28;46041;-55
2022/04/03 11:51:51;;;;;;;1.50;0.60;;;15.40;46.40;;;;;;4948609;28;45224;-57
2022/04/03 11:54:17;;;;;;;0.50;0.50;;;15.40;46.40;;;;;;4944136;28;45223;-56
2022/04/03 11:56:43;;;;;;;1.92;0.63;;;15.40;46.40;;;;;;4942774;28;45525;-58
2022/04/03 11:59:14;;;;;;;1.27;0.60;;;15.40;46.40;;;;;;4944454;28;46006;-59
2022/04/03 12:01:52;;;;;;;0.60;0.50;;;15.40;46.40;;;;;;4944687;28;47741;-57
2022/04/03 12:04:18;;;;;;;0.45;0.45;;;15.40;46.40;;;;;;4922095;28;45216;-59
2022/04/03 12:06:46;;;;;;;0.80;0.43;;;15.40;46.40;;;;;;4947356;28;44786;-57
2022/04/03 12:09:23;;;;;;;0.50;0.50;;;15.40;46.40;;;;;;4947906;28;45324;-56
2022/04/03 12:11:51;;;;;;;0.68;0.68;;;15.40;46.40;;;;;;4932770;28;45157;-58
2022/04/03 12:14:31;;;;;;;1.15;0.60;;;15.40;46.40;;;;;;4934149;28;45437;-56
2022/04/03 12:17:07;;;;;;;1.02;0.60;;;15.40;46.40;;;;;;4946800;28;45424;-56
2022/04/03 12:19:52;;;;;;;2.05;0.60;;;15.40;46.40;;;;;;4949016;28;46183;-58
2022/04/03 12:22:21;;;;;;;0.50;0.47;;;15.40;46.40;;;;;;4944433;28;45649;-59
2022/04/03 12:24:56;;;;;;;0.88;0.70;;;15.40;46.40;;;;;;4947253;28;45317;-57
2022/04/03 12:27:22;;;;;;;0.60;0.60;;;15.40;46.40;;;;;;4947457;28;45715;-56
2022/04/03 12:29:55;;;;;;;2.78;0.70;;;15.40;46.40;;;;;;4945557;28;46109;-56
2022/04/03 12:32:23;;;;;;;0.63;0.50;;;15.40;47.00;;;;;;4945148;28;45509;-55
2022/04/03 12:34:50;;;;;;;0.80;0.70;;;15.40;46.40;;;;;;4943679;28;45126;-54
2022/04/03 12:37:31;;;;;;;;;;;;;;;;;;;;;
2022/04/03 12:40:10;;;;;;;2.13;0.60;;;15.40;46.40;;;;;;4946958;28;46041;-55
2022/04/03 12:42:36;;;;;;;0.50;0.40;;;15.40;46.40;;;;;;4935236;28;45437;-58
2022/04/03 12:45:06;;;;;;;0.50;0.50;;;15.40;46.40;;;;;;4948812;28;45620;-56
2022/04/03 12:47:49;;;;;;;0.82;0.52;;;15.40;46.50;;;;;;4949382;28;46151;-53
2022/04/03 12:50:15;;;;;;;0.40;0.40;;;15.40;46.50;;;;;;4950848;28;45962;-58
2022/04/03 12:52:58;;;;;;;0.77;0.47;;;15.40;46.60;;;;;;4952574;28;45015;-53
2022/04/03 12:58:26;;;;;;;0.50;0.50;;;15.30;46.60;;;;;;4951504;28;45417;-57
2022/04/03 13:01:16;;;;;;;0.50;0.50;;;15.30;46.60;;;;;;4942085;28;45939;-55
2022/04/03 13:03:51;;;;;;;0.47;0.45;;;15.30;46.60;;;;;;4928595;28;45392;-57
2022/04/03 13:06:35;;;;;;;1.13;0.50;;;15.30;46.60;;;;;;4931447;28;45268;-56
2022/04/03 13:09:04;;;;;;;1.08;0.57;;;15.30;46.60;;;;;;4926911;28;45953;-54
2022/04/03 13:11:40;;;;;;;1.65;0.60;;;15.30;46.60;;;;;;4926958;28;44847;-58
2022/04/03 13:14:17;;;;;;;1.15;0.50;;;15.30;46.50;;;;;;4925217;28;45970;-55
2022/04/03 13:16:43;;;;;;;0.50;0.50;;;15.30;46.60;;;;;;4924358;28;45225;-57
2022/04/03 13:19:12;;;;;;;1.17;0.60;;;15.30;46.60;;;;;;4935938;28;44776;-60
2022/04/03 13:21:38;;;;;;;1.08;0.60;;;15.30;46.50;;;;;;4933967;28;45457;-53
2022/04/03 13:24:09;;;;;;;2.88;0.60;;;15.30;46.50;;;;;;4933754;28;45041;-56
2022/04/03 13:26:35;;;;;;;1.00;0.70;;;15.30;46.50;;;;;;4937046;28;45042;-56
2022/04/03 13:29:00;;;;;;;0.80;0.65;;;15.30;46.40;;;;;;4934443;28;45226;-57
2022/04/03 13:31:30;;;;;;;0.88;0.60;;;15.30;46.20;;;;;;4933968;28;46108;-56
2022/04/03 13:33:56;;;;;;;0.93;0.60;;;15.30;46.30;;;;;;4915716;28;45850;-57
2022/04/03 13:36:25;;;;;;;0.88;0.57;;;15.20;46.30;;;;;;4928911;28;45466;-58
2022/04/03 13:38:55;;;;;;;1.40;0.50;;;15.30;46.50;;;;;;4937461;28;45310;-54
2022/04/03 13:41:20;;;;;;;0.90;0.68;;;15.30;46.40;;;;;;4925366;28;46298;-56
2022/04/03 13:43:49;;;;;;;0.77;0.60;;;15.30;46.40;;;;;;4926751;28;44967;-54
2022/04/03 13:46:15;;;;;;;0.85;0.50;;;15.30;47.00;;;;;;4924443;28;45242;-55
2022/04/03 13:48:43;;;;;;;0.90;0.70;;;15.30;46.30;;;;;;4924386;28;45786;-54
2022/04/03 13:51:12;;;;;;;0.73;0.60;;;15.30;46.30;;;;;;4927094;28;46167;-55
2022/04/03 13:53:46;;;;;;;0.85;0.75;;;15.30;46.30;;;;;;4927985;28;44708;-56
2022/04/03 13:56:11;;;;;;;2.53;0.63;;;15.30;46.20;;;;;;4931479;28;45249;-57
2022/04/03 13:58:37;;;;;;;0.50;0.50;;;15.30;46.20;;;;;;4929781;28;44885;-55
2022/04/03 14:01:06;;;;;;;0.77;0.60;;;15.30;46.20;;;;;;4911079;28;46653;-57
2022/04/03 14:03:32;;;;;;;3.05;0.60;;;15.30;46.20;;;;;;4948650;28;46128;-56
2022/04/03 14:06:11;;;;;;;0.80;0.70;;;15.30;46.20;;;;;;4948720;28;45210;-55
2022/04/03 14:08:39;;;;;;;0.70;0.70;;;15.30;46.10;;;;;;4944173;28;45628;-55
2022/04/03 14:11:05;;;;;;;0.65;0.60;;;15.30;46.20;;;;;;4927627;28;45902;-57
2022/04/03 14:13:33;;;;;;;0.85;0.60;;;15.30;46.20;;;;;;4911878;28;45318;-56
2022/04/03 14:16:02;;;;;;;1.30;0.63;;;15.30;46.20;;;;;;4947241;28;45240;-58
2022/04/03 14:18:31;;;;;;;1.00;0.68;;;15.20;46.10;;;;;;4944760;28;45013;-56
2022/04/03 14:20:57;;;;;;;0.57;0.47;;;15.30;46.20;;;;;;4941964;28;46190;-56
2022/04/03 14:23:36;;;;;;;0.65;0.65;;;15.20;46.20;;;;;;4945099;28;44722;-57
2022/04/03 14:26:10;;;;;;;2.15;0.55;;;15.20;46.20;;;;;;4943708;28;45155;-58
2022/04/03 14:28:36;;;;;;;1.15;0.60;;;15.20;46.20;;;;;;4944540;28;45604;-56
2022/04/03 14:31:05;;;;;;;0.60;0.60;;;15.20;46.20;;;;;;4942465;28;45344;-56
2022/04/03 14:33:30;;;;;;;0.98;0.70;;;15.20;46.30;;;;;;4944236;28;45614;-56
2022/04/03 14:35:59;;;;;;;0.60;0.60;;;15.20;46.20;;;;;;4946115;28;45061;-57
2022/04/03 14:38:27;;;;;;;0.52;0.52;;;15.20;46.30;;;;;;4946549;28;45763;-58
2022/04/03 14:40:53;;;;;;;2.85;0.75;;;15.20;46.30;;;;;;4944325;28;46138;-56
2022/04/03 14:43:19;;;;;;;0.90;0.50;;;15.20;46.20;;;;;;4947433;28;45111;-58
2022/04/03 14:46:05;;;;;;;0.50;0.50;;;15.20;46.20;;;;;;4945807;28;45383;-57
2022/04/03 14:48:34;;;;;;;1.60;0.60;;;15.20;46.10;;;;;;4932684;28;44766;-59
2022/04/03 14:51:02;;;;;;;1.10;0.57;;;15.20;46.20;;;;;;4945925;28;46346;-57
2022/04/03 14:53:33;;;;;;;0.50;0.45;;;15.20;46.20;;;;;;4945479;28;45074;-58
2022/04/03 14:56:02;;;;;;;0.88;0.80;;;15.20;46.20;;;;;;4916294;28;45759;-56
2022/04/03 14:58:27;;;;;;;0.57;0.55;;;15.20;46.30;;;;;;4945810;28;45677;-56
2022/04/03 15:00:56;;;;;;;0.70;0.52;;;15.10;46.20;;;;;;4943929;28;46343;-55
2022/04/03 15:03:22;;;;;;;0.50;0.40;;;15.10;46.30;;;;;;4943100;28;45616;-57
2022/04/03 15:05:50;;;;;;;0.95;0.60;;;15.10;46.30;;;;;;4933297;28;45681;-59
2022/04/03 15:08:22;;;;;;;0.80;0.70;;;15.10;46.30;;;;;;4942753;28;45117;-57
2022/04/03 15:10:53;;;;;;;0.70;0.70;;;15.10;46.30;;;;;;4925584;28;46038;-58
2022/04/03 15:13:19;;;;;;;0.60;0.50;;;15.20;46.30;;;;;;4925145;28;45550;-58
2022/04/03 15:15:55;;;;;;;1.00;0.63;;;15.20;46.30;;;;;;4945987;28;45346;-56
2022/04/03 15:18:23;;;;;;;0.70;0.68;;;15.20;46.20;;;;;;4944924;28;45385;-57
2022/04/03 15:20:51;;;;;;;1.00;0.60;;;15.10;46.30;;;;;;4943987;28;45667;-56
2022/04/03 15:23:46;;;;;;;0.80;0.77;;;15.10;46.30;;;;;;4931022;28;45592;-57
2022/04/03 15:26:15;;;;;;;0.80;0.70;;;15.20;46.20;;;;;;4932922;28;45309;-57
2022/04/03 15:28:41;;;;;;;0.80;0.60;;;15.10;46.30;;;;;;4945068;28;45598;-56
2022/04/03 15:31:07;;;;;;;0.70;0.60;;;15.10;46.30;;;;;;4934321;28;46019;-60
2022/04/03 15:33:35;;;;;;;1.30;0.50;;;15.10;46.30;;;;;;4938005;28;46860;-56
2022/04/03 15:36:01;;;;;;;0.95;0.75;;;15.10;46.30;;;;;;4942788;28;45940;-58
2022/04/03 15:38:29;;;;;;;0.50;0.50;;;15.10;46.20;;;;;;4944011;28;45125;-57
2022/04/03 15:40:55;;;;;;;0.70;0.50;;;15.10;46.30;;;;;;4943861;28;46218;-54
2022/04/03 15:43:24;;;;;;;2.38;0.60;;;15.10;46.30;;;;;;4940412;28;46022;-55
2022/04/03 15:45:52;;;;;;;0.77;0.50;;;15.10;46.30;;;;;;4943401;28;45467;-56
2022/04/03 15:48:19;;;;;;;0.85;0.75;;;15.10;46.30;;;;;;4940188;28;45699;-57
2022/04/03 15:50:48;;;;;;;0.70;0.50;;;15.10;46.30;;;;;;4927598;28;45900;-58
2022/04/03 15:53:13;;;;;;;0.90;0.60;;;15.10;46.40;;;;;;4945016;28;45455;-57
2022/04/03 15:55:39;;;;;;;1.27;0.65;;;15.10;46.30;;;;;;4945891;28;45277;-57
2022/04/03 15:58:04;;;;;;;0.47;0.47;;;15.10;46.30;;;;;;4944846;28;45578;-57
2022/04/03 16:03:24;;;;;;;0.50;0.50;;;15.10;46.40;;;;;;4923749;28;45676;-55